Estación de Nueva Imperial

Ultimos registro cada 15 minutos 68
Estación Fecha / Hora Temperatura Humedad Lluvia Velocidad Dirección Radiación Presion
68 Nueva Imperial 07-05-2026 16:45 9,4 91,3 0 0 275 39,4 1018,3
67 Nueva Imperial 07-05-2026 16:30 9,6 89,9 0,2 0 282 26,9 1018,4
66 Nueva Imperial 07-05-2026 16:15 10,2 88,5 0 0 282 16,9 1018,3
65 Nueva Imperial 07-05-2026 16:00 10,5 86,7 0 0 282 38,1 1018,2
64 Nueva Imperial 07-05-2026 15:45 10,6 84,7 0,2 0 282 74,4 1018
63 Nueva Imperial 07-05-2026 15:30 10,7 84,6 0 0,3 292 84,4 1018,1
62 Nueva Imperial 07-05-2026 15:15 10,5 85,5 0,2 0,3 282 115,6 1018,1
61 Nueva Imperial 07-05-2026 15:00 10,6 85 0 0,3 271 70,6 1018,5
60 Nueva Imperial 07-05-2026 14:45 11,1 83,3 0 0 265 144,4 1018,6
59 Nueva Imperial 07-05-2026 14:30 10,5 85,1 0,2 0 264 173,1 1018,4
58 Nueva Imperial 07-05-2026 14:15 11 86,9 0 0 258 126,9 1018,8
57 Nueva Imperial 07-05-2026 14:00 10,4 88,8 0 0 261 186,9 1018,9
56 Nueva Imperial 07-05-2026 13:45 9,5 89 0,2 0,7 278 129,4 1018,7
55 Nueva Imperial 07-05-2026 13:30 9,2 88,9 0 1 275 151,9 1018,9
54 Nueva Imperial 07-05-2026 13:15 10,3 80,2 0,2 0,7 285 75,6 1019,2
53 Nueva Imperial 07-05-2026 13:00 10,9 78,6 0 0,7 314 151,9 1019,3
52 Nueva Imperial 07-05-2026 12:45 11,4 77,9 0,2 0,7 284 231,9 1019,1
51 Nueva Imperial 07-05-2026 12:30 11,3 76,5 0 1 282 295,6 1019,5
50 Nueva Imperial 07-05-2026 12:15 11,1 76,7 0,2 1 268 201,9 1019,3
49 Nueva Imperial 07-05-2026 12:00 10,8 80,3 0 0,3 6 211,9 1019,2
48 Nueva Imperial 07-05-2026 11:45 10,2 82,3 0,2 0,3 292 150,6 1019,6
47 Nueva Imperial 07-05-2026 11:30 11,2 80,5 0,2 0 34 111,9 1019,8
46 Nueva Imperial 07-05-2026 11:15 11,7 76,5 0 0 18 161,9 1019,4
45 Nueva Imperial 07-05-2026 11:00 12,1 79,1 0,2 0,3 254 231,9 1019,2
44 Nueva Imperial 07-05-2026 10:45 13,6 79,6 0 0,3 286 325,6 1019,5
43 Nueva Imperial 07-05-2026 10:30 13,9 79,3 0 0,3 278 416,9 1019,5
42 Nueva Imperial 07-05-2026 10:15 11,6 84 0 0,3 86 295,6 1019,3
41 Nueva Imperial 07-05-2026 10:00 9,8 86,3 0,2 0,3 122 146,9 1019,4
40 Nueva Imperial 07-05-2026 09:45 9,5 86,7 0 0 272 83,1 1019,4
39 Nueva Imperial 07-05-2026 09:30 9,5 87,8 0 0 272 135,6 1019,4
38 Nueva Imperial 07-05-2026 09:15 9,3 88,5 0 0 272 123,1 1019,3
37 Nueva Imperial 07-05-2026 09:00 9,1 91,2 0,2 0 272 195,6 1019
36 Nueva Imperial 07-05-2026 08:45 7,3 95,9 0 0 272 158,1 1018,9
35 Nueva Imperial 07-05-2026 08:30 0 0 0 0 272 123,1 1019
34 Nueva Imperial 07-05-2026 08:15 5 96,2 0,2 0 272 84,4 1018,5
33 Nueva Imperial 07-05-2026 08:00 4,1 96 0 0 272 35,6 1018,2
32 Nueva Imperial 07-05-2026 07:45 4 95,5 0 0 272 6,9 1018,4
31 Nueva Imperial 07-05-2026 07:30 4,2 95,8 0,2 0 272 0,6 1018,3
30 Nueva Imperial 07-05-2026 07:15 4,6 95 0 0,3 272 0,6 1018,2
29 Nueva Imperial 07-05-2026 07:00 4,7 96,9 0 0,3 272 0,6 1018,2
28 Nueva Imperial 07-05-2026 06:45 4,7 97,6 0 0 272 0,6 1018
27 Nueva Imperial 07-05-2026 06:30 5,1 98 0,2 0 272 0,6 1018,2
26 Nueva Imperial 07-05-2026 06:15 4,7 97,8 0 0 272 0,6 1018,2
25 Nueva Imperial 07-05-2026 06:00 5 97,7 0 0 258 0,6 1018,1
24 Nueva Imperial 07-05-2026 05:45 5,2 97,5 0,2 0 256 0,6 1018
23 Nueva Imperial 07-05-2026 05:30 5,9 97,5 0 0 256 0,6 1017,7
22 Nueva Imperial 07-05-2026 05:15 6 97,9 0 0 256 0,6 1017,6
21 Nueva Imperial 07-05-2026 05:00 6,3 98 0,2 0 256 0,6 1017,4
20 Nueva Imperial 07-05-2026 04:45 7 98,2 0 0 256 0,6 1017,5
19 Nueva Imperial 07-05-2026 04:30 6,9 98,1 0 0 256 0,6 1017,2
18 Nueva Imperial 07-05-2026 04:15 7 98,2 0,2 0 256 0,6 1016,9
17 Nueva Imperial 07-05-2026 04:00 7,1 98,3 0 0 256 0,6 1016,8
16 Nueva Imperial 07-05-2026 03:45 7,1 98,3 0 0 256 0,6 1016,6
15 Nueva Imperial 07-05-2026 03:30 7 98,2 0,2 0 256 0,6 1016,6
14 Nueva Imperial 07-05-2026 03:15 7,1 98,1 0 0 256 0,6 1016,6
13 Nueva Imperial 07-05-2026 03:00 7,7 98 0,2 0 256 0,6 1016,6
12 Nueva Imperial 07-05-2026 02:45 7,9 98 0 0 256 0,6 1016,5
11 Nueva Imperial 07-05-2026 02:30 7,8 97,9 0 0 256 0,6 1016,3
10 Nueva Imperial 07-05-2026 02:15 8 97,8 0,2 0 256 0,6 1016,2
9 Nueva Imperial 07-05-2026 02:00 8,2 97,8 0 0 256 0,6 1016,3
8 Nueva Imperial 07-05-2026 01:45 8,4 97,8 0 0,3 256 0,6 1016
7 Nueva Imperial 07-05-2026 01:30 8,3 97,9 0,2 0 256 0,6 1015,8
6 Nueva Imperial 07-05-2026 01:15 8,1 97,8 0 0 270 0,6 1015,8
5 Nueva Imperial 07-05-2026 01:00 7,9 97,8 0 0 271 0,6 1015,6
4 Nueva Imperial 07-05-2026 00:45 7,4 97,6 0,2 0 306 0,6 1015,4
3 Nueva Imperial 07-05-2026 00:30 7,2 97,6 0 0 319 0,6 1015,3
2 Nueva Imperial 07-05-2026 00:15 7,2 97,7 0 0 343 0,6 1015,2
1 Nueva Imperial 07-05-2026 00:00 7 97,9 0,2 0 340 0,6 1015,2